Time;durP1;ratioP1;P1;durP2;ratioP2;P2;SDS_P1;SDS_P2;PMS_P1;PMS_P2;Temp;Humidity;BMP_temperature;BMP_pressure;BME280_temperature;BME280_humidity;BME280_pressure;Samples;Min_cycle;Max_cycle;Signal;HPM_P1;HPM_P2
2021/10/14 00:01:53;;;;;;;19.05;11.88;;;;;;;11.72;91.05;102534.44;5056441;28;20460;-67
2021/10/14 00:04:18;;;;;;;23.00;13.68;;;;;;;11.51;92.01;102534.78;5056312;28;20037;-67
2021/10/14 00:06:45;;;;;;;19.30;13.40;;;;;;;11.59;92.40;102541.75;5055948;28;20096;-67
2021/10/14 00:09:10;;;;;;;21.23;13.02;;;;;;;11.60;92.13;102533.06;5055993;28;20025;-68
2021/10/14 00:11:36;;;;;;;23.50;13.02;;;;;;;11.59;92.12;102524.44;5054770;28;20032;-68
2021/10/14 00:14:01;;;;;;;22.30;13.82;;;;;;;11.49;92.20;102539.28;5054931;28;20467;-68
2021/10/14 00:16:26;;;;;;;24.98;13.43;;;;;;;11.45;92.69;102536.19;5056271;28;20024;-67
2021/10/14 00:18:51;;;;;;;23.52;13.35;;;;;;;11.49;92.41;102534.91;5054858;28;20025;-67
2021/10/14 00:21:17;;;;;;;20.65;13.27;;;;;;;11.49;92.32;102532.31;5056148;28;20537;-68
2021/10/14 00:23:42;;;;;;;27.13;13.45;;;;;;;11.53;92.00;102532.81;5056064;28;20028;-67
2021/10/14 00:26:07;;;;;;;22.98;13.38;;;;;;;11.57;91.82;102530.78;5056207;28;20104;-67
2021/10/14 00:28:33;;;;;;;20.90;13.40;;;;;;;11.63;91.69;102522.41;5055875;28;20032;-66
2021/10/14 00:30:59;;;;;;;21.77;12.88;;;;;;;11.56;91.94;102523.94;5054677;28;20024;-67
2021/10/14 00:33:24;;;;;;;26.70;12.98;;;;;;;11.58;91.91;102527.22;5055898;28;20020;-67
2021/10/14 00:35:50;;;;;;;20.58;12.15;;;;;;;11.49;91.63;102521.97;5055825;28;20027;-67
2021/10/14 00:38:15;;;;;;;35.28;13.18;;;;;;;11.59;91.79;102521.06;5055729;28;20021;-67
2021/10/14 00:40:42;;;;;;;22.45;12.43;;;;;;;11.65;91.91;102528.22;5055789;28;20031;-67
2021/10/14 00:43:07;;;;;;;20.73;11.90;;;;;;;11.61;91.34;102521.72;5055519;28;20048;-66
2021/10/14 00:45:33;;;;;;;29.08;12.25;;;;;;;11.60;91.69;102527.88;5055625;28;20025;-68
2021/10/14 00:47:58;;;;;;;26.30;12.57;;;;;;;11.65;91.69;102516.09;5055563;28;20024;-67
2021/10/14 00:50:23;;;;;;;22.83;12.18;;;;;;;11.67;91.39;102514.16;5055587;28;20083;-67
2021/10/14 00:52:51;;;;;;;23.55;11.57;;;;;;;11.71;91.76;102502.53;5055614;28;20016;-67
2021/10/14 00:55:16;;;;;;;24.05;11.52;;;;;;;11.64;91.68;102511.88;5054226;28;20473;-67
2021/10/14 00:57:42;;;;;;;24.58;12.57;;;;;;;11.57;92.26;102502.28;5055509;28;20052;-67
2021/10/14 01:00:09;;;;;;;27.20;12.70;;;;;;;11.64;92.04;102509.28;5054166;28;20029;-67
2021/10/14 01:02:34;;;;;;;20.67;11.98;;;;;;;11.65;91.98;102491.97;5054055;28;20108;-67
2021/10/14 01:04:59;;;;;;;18.60;11.65;;;;;;;11.71;91.45;102499.94;5055303;28;20545;-67
2021/10/14 01:07:25;;;;;;;24.25;11.65;;;;;;;11.73;91.27;102498.00;5055640;28;20027;-67
2021/10/14 01:09:50;;;;;;;22.08;11.57;;;;;;;11.79;91.10;102493.19;5055449;28;20021;-67
2021/10/14 01:12:17;;;;;;;20.33;11.18;;;;;;;11.77;90.96;102488.16;5055157;28;20021;-67
2021/10/14 01:14:43;;;;;;;24.70;11.50;;;;;;;11.68;92.00;102494.25;5055221;28;20049;-67
2021/10/14 01:17:08;;;;;;;25.48;12.68;;;;;;;11.71;92.27;102489.59;5055148;28;20040;-67
2021/10/14 01:19:36;;;;;;;23.60;12.40;;;;;;;11.81;92.33;102499.84;5054979;28;20067;-67
2021/10/14 01:22:02;;;;;;;20.50;12.00;;;;;;;11.79;91.96;102495.78;5053769;28;20102;-67
2021/10/14 01:24:27;;;;;;;27.23;12.48;;;;;;;11.78;92.55;102489.78;5055203;28;20025;-67
2021/10/14 01:26:52;;;;;;;20.95;12.23;;;;;;;11.76;92.25;102483.94;5054922;28;20074;-67
2021/10/14 01:29:18;;;;;;;24.23;12.60;;;;;;;11.71;92.71;102488.78;5054815;28;20385;-67
2021/10/14 01:31:43;;;;;;;28.52;13.07;;;;;;;11.69;92.96;102475.97;5054884;28;20021;-68
2021/10/14 01:34:08;;;;;;;21.65;12.65;;;;;;;11.74;92.91;102483.31;5053437;28;20044;-67
2021/10/14 01:36:34;;;;;;;23.67;13.60;;;;;;;11.79;92.45;102473.28;5054643;28;20606;-67
2021/10/14 01:38:59;;;;;;;25.20;13.18;;;;;;;11.85;92.70;102469.25;5053373;28;20037;-67
2021/10/14 01:41:24;;;;;;;28.05;13.77;;;;;;;11.90;92.56;102462.69;5054455;28;20048;-65
2021/10/14 01:43:50;;;;;;;25.58;13.80;;;;;;;11.87;92.61;102465.59;5054526;28;20021;-66
2021/10/14 01:46:15;;;;;;;26.15;14.15;;;;;;;11.91;92.54;102463.47;5054625;28;20021;-67
2021/10/14 01:48:40;;;;;;;22.67;13.55;;;;;;;11.94;92.61;102465.78;5055076;28;20108;-66
2021/10/14 01:51:09;;;;;;;26.60;14.40;;;;;;;11.91;92.54;102466.06;5054400;28;20021;-67
2021/10/14 01:53:34;;;;;;;22.90;14.00;;;;;;;11.82;92.81;102466.97;5054258;28;20024;-67
2021/10/14 01:55:59;;;;;;;28.45;15.35;;;;;;;11.90;93.47;102465.28;5052981;28;20025;-67
2021/10/14 01:58:24;;;;;;;33.22;14.85;;;;;;;11.85;93.00;102471.84;5053607;28;20028;-67
2021/10/14 02:00:52;;;;;;;23.77;14.18;;;;;;;11.91;93.27;102461.72;5054202;28;20025;-67
2021/10/14 02:03:18;;;;;;;30.75;15.25;;;;;;;11.94;92.56;102474.38;5054137;28;20071;-67
2021/10/14 02:05:44;;;;;;;37.28;14.82;;;;;;;11.90;93.58;102467.84;5054168;28;20066;-67
2021/10/14 02:08:09;;;;;;;24.92;14.82;;;;;;;11.99;93.12;102466.13;5052858;28;20028;-67
2021/10/14 02:10:34;;;;;;;26.38;14.80;;;;;;;12.07;92.53;102470.53;5054204;28;20020;-67
2021/10/14 02:13:00;;;;;;;29.73;14.75;;;;;;;12.12;92.45;102461.34;5054481;28;20456;-68
2021/10/14 02:15:26;;;;;;;29.65;15.15;;;;;;;12.12;92.43;102463.91;5052786;28;20074;-67
2021/10/14 02:17:51;;;;;;;27.65;15.27;;;;;;;12.16;92.21;102459.22;5053865;28;20529;-67
2021/10/14 02:20:17;;;;;;;30.88;15.50;;;;;;;12.08;92.85;102451.41;5053948;28;20431;-67
2021/10/14 02:22:42;;;;;;;25.67;15.15;;;;;;;12.14;93.11;102451.63;5053768;28;20025;-67
2021/10/14 02:25:10;;;;;;;29.55;16.58;;;;;;;12.13;92.84;102444.00;5053784;28;20027;-67
2021/10/14 02:27:36;;;;;;;28.30;16.20;;;;;;;12.10;93.49;102446.91;5052440;28;20036;-67
2021/10/14 02:30:02;;;;;;;26.95;15.77;;;;;;;12.10;93.20;102445.13;5053738;28;20020;-67
2021/10/14 02:32:29;;;;;;;32.42;16.38;;;;;;;12.13;93.42;102442.22;5054303;28;20453;-67
2021/10/14 02:34:57;;;;;;;30.92;17.02;;;;;;;12.15;93.37;102444.66;5053535;28;20021;-67
2021/10/14 02:37:22;;;;;;;32.33;17.40;;;;;;;12.17;93.54;102448.72;5053644;28;20037;-67
2021/10/14 02:39:47;;;;;;;37.30;17.80;;;;;;;12.21;93.73;102451.81;5054059;28;20086;-67
2021/10/14 02:42:12;;;;;;;33.08;18.38;;;;;;;12.24;93.19;102451.50;5053260;28;20072;-67
2021/10/14 02:44:40;;;;;;;31.38;17.20;;;;;;;12.21;93.26;102438.84;5054028;28;20024;-67
2021/10/14 02:47:06;;;;;;;35.13;17.13;;;;;;;12.24;93.43;102441.13;5053441;28;20021;-67
2021/10/14 02:49:31;;;;;;;32.50;17.67;;;;;;;12.26;93.53;102441.78;5053405;28;20108;-66
2021/10/14 02:51:56;;;;;;;32.75;17.42;;;;;;;12.33;92.97;102441.97;5052965;28;20025;-66
2021/10/14 02:54:22;;;;;;;34.10;17.60;;;;;;;12.25;93.71;102445.31;5051960;28;20027;-68
2021/10/14 02:56:47;;;;;;;32.75;17.45;;;;;;;12.25;93.55;102444.53;5052061;28;20021;-67
2021/10/14 02:59:12;;;;;;;34.05;17.63;;;;;;;12.30;93.56;102439.69;5053342;28;20021;-66
2021/10/14 03:01:38;;;;;;;29.52;17.05;;;;;;;12.29;93.31;102448.44;5053564;28;20024;-67
2021/10/14 03:04:03;;;;;;;35.80;17.40;;;;;;;12.26;93.53;102439.19;5051913;28;20035;-67
2021/10/14 03:06:29;;;;;;;31.58;17.48;;;;;;;12.30;93.48;102437.91;5053202;28;20029;-67
2021/10/14 03:08:54;;;;;;;30.02;16.60;;;;;;;12.29;93.50;102436.28;5053122;28;20108;-66
2021/10/14 03:11:19;;;;;;;31.92;17.25;;;;;;;12.27;93.65;102427.84;5053195;28;20056;-67
2021/10/14 03:13:45;;;;;;;30.83;16.88;;;;;;;12.34;93.34;102433.19;5053796;28;20432;-67
2021/10/14 03:16:10;;;;;;;29.48;16.88;;;;;;;12.42;93.07;102430.63;5053413;28;20027;-67
2021/10/14 03:18:36;;;;;;;30.80;17.50;;;;;;;12.34;93.55;102428.00;5053100;28;20489;-67
2021/10/14 03:21:01;;;;;;;30.23;16.38;;;;;;;12.37;93.36;102427.69;5053387;28;20025;-66
2021/10/14 03:23:26;;;;;;;30.90;15.75;;;;;;;12.32;93.34;102432.56;5053007;28;20035;-67
2021/10/14 03:25:51;;;;;;;36.00;18.33;;;;;;;12.35;93.30;102427.06;5051724;28;20042;-68
2021/10/14 03:28:17;;;;;;;33.00;17.27;;;;;;;12.38;93.01;102434.53;5053215;28;20059;-66
2021/10/14 03:30:42;;;;;;;32.47;16.88;;;;;;;12.40;93.44;102432.59;5051651;28;20529;-66
2021/10/14 03:33:07;;;;;;;31.15;16.83;;;;;;;12.39;93.87;102429.16;5052914;28;20025;-67
2021/10/14 03:35:33;;;;;;;35.67;17.13;;;;;;;12.37;93.98;102433.72;5052887;28;20035;-66
2021/10/14 03:37:59;;;;;;;34.97;17.80;;;;;;;12.42;93.37;102431.44;5053228;28;20020;-66
2021/10/14 03:40:24;;;;;;;38.38;17.98;;;;;;;12.38;93.63;102430.16;5052896;28;20052;-66
2021/10/14 03:42:50;;;;;;;33.85;18.10;;;;;;;12.38;94.08;102424.16;5052643;28;20045;-67
2021/10/14 03:45:16;;;;;;;31.05;17.15;;;;;;;12.44;93.75;102423.50;5052828;28;20039;-67
2021/10/14 03:47:41;;;;;;;32.30;17.30;;;;;;;12.47;93.77;102427.56;5052800;28;20056;-67
2021/10/14 03:50:08;;;;;;;30.88;17.35;;;;;;;12.43;94.06;102416.72;5051769;28;20492;-67
2021/10/14 03:52:34;;;;;;;32.35;16.60;;;;;;;12.44;94.20;102420.94;5053282;28;20031;-67
2021/10/14 03:54:59;;;;;;;34.38;16.98;;;;;;;12.46;93.90;102428.53;5053028;28;20021;-67
2021/10/14 03:57:24;;;;;;;33.47;17.35;;;;;;;12.42;94.67;102431.44;5052976;28;20396;-67
2021/10/14 03:59:50;;;;;;;33.58;17.38;;;;;;;12.53;94.16;102419.97;5052831;28;20119;-67
2021/10/14 04:02:15;;;;;;;34.35;17.25;;;;;;;12.60;93.67;102427.91;5053164;28;20025;-67
2021/10/14 04:04:40;;;;;;;31.73;17.20;;;;;;;12.64;93.62;102426.63;5052715;28;20051;-68
2021/10/14 04:07:05;;;;;;;31.55;16.45;;;;;;;12.57;93.51;102438.59;5052700;28;20032;-67
2021/10/14 04:09:31;;;;;;;36.28;17.75;;;;;;;12.52;93.83;102430.50;5052604;28;20016;-67
2021/10/14 04:11:56;;;;;;;33.15;18.05;;;;;;;12.52;94.01;102436.50;5053133;28;20020;-67
2021/10/14 04:14:21;;;;;;;33.50;17.52;;;;;;;12.56;93.81;102435.19;5051265;28;20021;-67
2021/10/14 04:16:46;;;;;;;40.20;18.70;;;;;;;12.57;93.59;102436.84;5052568;28;20498;-67
2021/10/14 04:19:12;;;;;;;35.90;19.08;;;;;;;12.49;93.83;102430.84;5052792;28;20044;-67
2021/10/14 04:21:38;;;;;;;40.45;18.77;;;;;;;12.52;93.92;102435.69;5055618;28;20025;-66
2021/10/14 04:24:04;;;;;;;38.40;18.90;;;;;;;12.56;93.83;102434.41;5056343;28;20024;-67
2021/10/14 04:26:29;;;;;;;42.28;20.25;;;;;;;12.48;94.00;102432.59;5056351;28;20064;-67
2021/10/14 04:28:54;;;;;;;43.80;19.27;;;;;;;12.46;93.65;102429.38;5054777;28;20056;-67
2021/10/14 04:31:20;;;;;;;42.22;19.42;;;;;;;12.43;93.87;102419.31;5056342;28;20025;-67
2021/10/14 04:33:45;;;;;;;43.15;20.42;;;;;;;12.45;93.50;102429.50;5054694;28;20067;-67
2021/10/14 04:36:10;;;;;;;38.65;19.33;;;;;;;12.48;93.42;102430.00;5054397;28;20411;-65
2021/10/14 04:38:36;;;;;;;40.50;19.70;;;;;;;12.50;93.13;102430.66;5055861;28;20396;-66
2021/10/14 04:41:01;;;;;;;51.20;19.92;;;;;;;12.48;93.50;102418.81;5054373;28;20024;-66
2021/10/14 04:43:26;;;;;;;42.58;19.73;;;;;;;12.44;93.53;102423.50;5054368;28;20044;-66
2021/10/14 04:45:52;;;;;;;41.45;19.63;;;;;;;12.44;93.97;102418.34;5054402;28;20483;-66
2021/10/14 04:48:18;;;;;;;39.17;18.52;;;;;;;12.45;93.67;102419.94;5054443;28;20491;-66
2021/10/14 04:50:43;;;;;;;36.97;17.75;;;;;;;12.49;93.42;102417.88;5055802;28;20025;-66
2021/10/14 04:53:08;;;;;;;38.83;19.17;;;;;;;12.45;93.61;102421.72;5055607;28;20020;-66
2021/10/14 04:55:33;;;;;;;41.35;18.85;;;;;;;12.47;93.46;102422.38;5054269;28;20091;-65
2021/10/14 04:58:00;;;;;;;37.78;18.17;;;;;;;12.46;93.47;102416.41;5055749;28;20109;-66
2021/10/14 05:00:25;;;;;;;42.95;19.08;;;;;;;12.49;93.51;102415.28;5055808;28;20056;-66
2021/10/14 05:02:51;;;;;;;37.22;18.05;;;;;;;12.49;93.27;102404.91;5055362;28;20090;-69
2021/10/14 05:05:16;;;;;;;38.67;18.40;;;;;;;12.42;93.90;102415.06;5055312;28;20021;-66
2021/10/14 05:07:41;;;;;;;28.00;16.65;;;;;;;12.48;93.81;102411.03;5055452;28;20046;-66
2021/10/14 05:10:07;;;;;;;39.03;18.75;;;;;;;12.45;93.87;102425.13;5055444;28;20411;-66
2021/10/14 05:12:33;;;;;;;37.03;17.85;;;;;;;12.50;93.62;102425.47;5055374;28;20107;-67
2021/10/14 05:14:59;;;;;;;48.53;19.05;;;;;;;12.46;93.57;102431.97;5055306;28;20090;-66
2021/10/14 05:20:45;;;;;;;34.38;17.60;;;;;;;12.43;93.60;102427.09;5055471;28;20431;-67
2021/10/14 05:23:11;;;;;;;39.17;18.77;;;;;;;12.41;93.50;102413.47;5055154;28;20025;-66
2021/10/14 05:25:36;;;;;;;37.97;17.85;;;;;;;12.38;94.05;102418.97;5055145;28;20109;-66
2021/10/14 05:28:01;;;;;;;42.60;18.30;;;;;;;12.40;93.47;102427.41;5055360;28;20046;-67
2021/10/14 05:30:27;;;;;;;38.28;18.90;;;;;;;12.38;93.75;102414.59;5055038;28;20021;-66
2021/10/14 05:32:52;;;;;;;36.75;17.38;;;;;;;12.41;93.77;102416.06;5054418;28;20368;-67
2021/10/14 05:35:17;;;;;;;33.67;16.83;;;;;;;12.37;94.20;102417.31;5054849;28;20028;-66
2021/10/14 05:37:43;;;;;;;37.45;17.83;;;;;;;12.45;93.91;102419.13;5054947;28;20032;-67
2021/10/14 05:40:09;;;;;;;32.80;16.65;;;;;;;12.45;94.03;102419.13;5053948;28;20491;-67
2021/10/14 05:42:34;;;;;;;38.80;17.17;;;;;;;12.39;94.20;102416.19;5054647;28;20053;-66
2021/10/14 05:44:59;;;;;;;40.90;17.55;;;;;;;12.42;94.01;102409.91;5054805;28;20049;-66
2021/10/14 05:47:24;;;;;;;36.53;17.23;;;;;;;12.51;93.61;102408.13;5054808;28;20514;-66
2021/10/14 05:49:50;;;;;;;38.35;16.50;;;;;;;12.44;94.02;102404.56;5054679;28;20025;-66
2021/10/14 05:52:15;;;;;;;41.25;16.70;;;;;;;12.46;93.95;102407.78;5054577;28;20035;-66
2021/10/14 05:54:40;;;;;;;38.47;17.00;;;;;;;12.51;93.94;102403.75;5054648;28;20035;-67
2021/10/14 05:57:06;;;;;;;35.72;16.33;;;;;;;12.51;93.78;102402.94;5054488;28;20025;-67
2021/10/14 05:59:31;;;;;;;34.58;16.00;;;;;;;12.52;93.59;102405.38;5053252;28;20075;-67
2021/10/14 06:01:57;;;;;;;31.27;16.42;;;;;;;12.56;93.55;102411.06;5055038;28;20028;-67
2021/10/14 06:04:22;;;;;;;34.22;15.65;;;;;;;12.56;93.60;102419.63;5054220;28;20032;-67
2021/10/14 06:06:47;;;;;;;39.55;15.35;;;;;;;12.53;93.81;102422.56;5052925;28;20503;-67
2021/10/14 06:09:13;;;;;;;33.70;15.55;;;;;;;12.56;93.76;102417.06;5054334;28;20468;-67
2021/10/14 06:11:38;;;;;;;39.65;15.35;;;;;;;12.61;93.45;102409.59;5054282;28;20057;-67
2021/10/14 06:14:03;;;;;;;39.83;15.23;;;;;;;12.63;93.61;102406.88;5054124;28;20025;-67
2021/10/14 06:16:29;;;;;;;34.30;14.82;;;;;;;12.65;93.55;102410.09;5054150;28;20090;-67
2021/10/14 06:18:54;;;;;;;37.33;15.15;;;;;;;12.61;93.49;102409.59;5054126;28;20060;-67
2021/10/14 06:21:19;;;;;;;30.90;15.55;;;;;;;12.65;93.26;102413.50;5054095;28;20024;-67
2021/10/14 06:23:45;;;;;;;35.40;15.23;;;;;;;12.58;93.44;102415.13;5053972;28;20051;-67
2021/10/14 06:26:10;;;;;;;28.65;14.23;;;;;;;12.60;93.53;102404.56;5054411;28;20056;-67
2021/10/14 06:28:36;;;;;;;32.33;13.88;;;;;;;12.63;93.35;102412.84;5054307;28;20021;-67
2021/10/14 06:31:01;;;;;;;33.30;15.07;;;;;;;12.58;93.62;102403.94;5054089;28;20031;-67
2021/10/14 06:33:27;;;;;;;30.85;13.80;;;;;;;12.61;93.47;102406.22;5054320;28;20083;-65
2021/10/14 06:35:52;;;;;;;34.75;14.13;;;;;;;12.68;93.68;102403.78;5053857;28;20033;-66
2021/10/14 06:38:17;;;;;;;29.77;13.02;;;;;;;12.72;93.49;102399.91;5054176;28;20472;-67
2021/10/14 06:40:43;;;;;;;27.55;13.82;;;;;;;12.73;93.06;102396.31;5053926;28;20087;-67
2021/10/14 06:43:08;;;;;;;32.88;13.93;;;;;;;12.67;93.14;102397.78;5054750;28;20128;-69
2021/10/14 06:45:34;;;;;;;32.08;12.98;;;;;;;12.68;93.14;102401.97;5055935;28;20363;-68
2021/10/14 06:47:59;;;;;;;24.42;12.38;;;;;;;12.67;93.54;102400.38;5055484;28;20062;-69
2021/10/14 06:50:25;;;;;;;25.77;12.15;;;;;;;12.63;93.83;102399.09;5055750;28;20454;-67
2021/10/14 06:52:50;;;;;;;27.60;12.73;;;;;;;12.67;93.65;102397.78;5055556;28;20020;-68
2021/10/14 06:55:15;;;;;;;27.40;12.20;;;;;;;12.70;93.26;102394.06;5056255;28;20032;-69
2021/10/14 06:57:41;;;;;;;34.28;13.15;;;;;;;12.70;93.73;102401.84;5055613;28;20534;-71
2021/10/14 07:00:07;;;;;;;25.30;12.50;;;;;;;12.70;93.59;102394.84;5056829;28;20051;-67
2021/10/14 07:02:33;;;;;;;29.17;11.95;;;;;;;12.73;93.29;102393.72;5054823;28;20086;-68
2021/10/14 07:04:59;;;;;;;28.38;12.35;;;;;;;12.71;94.07;102399.06;5053890;28;20032;-69
2021/10/14 07:07:24;;;;;;;27.45;12.15;;;;;;;12.76;93.76;102391.63;5055015;28;20048;-68
2021/10/14 07:09:49;;;;;;;30.55;12.63;;;;;;;12.73;93.49;102393.72;5053047;28;20052;-67
2021/10/14 07:12:15;;;;;;;22.98;11.85;;;;;;;12.78;92.85;102391.47;5054083;28;20506;-68
2021/10/14 07:14:41;;;;;;;26.13;11.80;;;;;;;12.76;93.60;102393.41;5053969;28;20025;-66
2021/10/14 07:17:07;;;;;;;30.70;12.60;;;;;;;12.75;93.45;102384.00;5053936;28;20025;-66
2021/10/14 07:19:33;;;;;;;30.85;12.18;;;;;;;12.83;93.28;102392.59;5053568;28;20029;-67
2021/10/14 07:21:59;;;;;;;26.70;11.90;;;;;;;12.86;92.79;102384.50;5053641;28;20017;-67
2021/10/14 07:24:25;;;;;;;25.02;11.30;;;;;;;12.90;92.93;102379.78;5053603;28;20025;-68
2021/10/14 07:26:50;;;;;;;28.63;11.68;;;;;;;12.95;92.54;102384.50;5053532;28;20053;-67
2021/10/14 07:29:16;;;;;;;24.58;10.77;;;;;;;12.97;92.73;102392.91;5053409;28;20025;-67
2021/10/14 07:31:42;;;;;;;24.83;11.10;;;;;;;13.04;92.29;102375.72;5052083;28;20079;-67
2021/10/14 07:34:08;;;;;;;25.48;11.23;;;;;;;13.03;92.31;102381.88;5052265;28;20495;-67
2021/10/14 07:36:33;;;;;;;18.77;10.75;;;;;;;12.94;92.57;102394.03;5053379;28;20033;-67
2021/10/14 07:39:00;;;;;;;25.73;11.30;;;;;;;12.97;92.44;102387.72;5051988;28;20119;-66
2021/10/14 07:41:25;;;;;;;23.85;11.45;;;;;;;12.99;91.87;102386.59;5053302;28;20048;-67
2021/10/14 07:43:50;;;;;;;20.60;10.98;;;;;;;12.99;92.41;102390.97;5052122;28;20031;-66
2021/10/14 07:46:16;;;;;;;22.35;10.95;;;;;;;13.07;92.05;102390.97;5052927;28;20082;-66
2021/10/14 07:48:41;;;;;;;29.20;11.50;;;;;;;13.04;92.01;102388.69;5053042;28;20028;-67
2021/10/14 07:51:08;;;;;;;23.40;11.73;;;;;;;12.93;92.31;102379.47;5053045;28;20021;-67
2021/10/14 07:53:33;;;;;;;19.23;11.50;;;;;;;12.96;92.45;102392.09;5051555;28;20072;-66
2021/10/14 07:55:58;;;;;;;25.65;12.30;;;;;;;13.00;92.44;102385.59;5055402;28;20025;-67
2021/10/14 07:58:24;;;;;;;27.08;12.57;;;;;;;12.97;92.42;102388.53;5056829;28;20450;-67
2021/10/14 08:00:49;;;;;;;24.73;11.98;;;;;;;12.93;92.57;102391.63;5055583;28;20040;-68
2021/10/14 08:03:15;;;;;;;23.77;11.60;;;;;;;12.98;92.79;102392.75;5056990;28;20021;-67
2021/10/14 08:05:40;;;;;;;21.88;11.05;;;;;;;13.09;92.33;102392.44;5055457;28;20017;-67
2021/10/14 08:08:05;;;;;;;21.05;11.07;;;;;;;12.99;91.98;102406.53;5055347;28;20016;-67
2021/10/14 08:10:32;;;;;;;21.45;10.00;;;;;;;13.06;92.08;102400.53;5055277;28;20111;-67
2021/10/14 08:12:57;;;;;;;20.50;11.38;;;;;;;13.14;91.54;102404.09;5054937;28;20040;-66
2021/10/14 08:15:23;;;;;;;23.95;10.73;;;;;;;13.10;91.85;102401.81;5057130;28;20052;-67
2021/10/14 08:17:48;;;;;;;21.13;11.13;;;;;;;13.13;92.23;102392.91;5056979;28;20047;-67
2021/10/14 08:23:36;;;;;;;17.73;9.95;;;;;;;13.28;90.78;102398.25;5056358;28;20080;-66
2021/10/14 08:26:01;;;;;;;22.63;10.55;;;;;;;13.25;91.18;102396.81;5054905;28;20029;-67
2021/10/14 08:28:27;;;;;;;18.67;9.98;;;;;;;13.31;91.26;102392.72;5056199;28;20032;-67
2021/10/14 08:30:52;;;;;;;22.05;10.63;;;;;;;13.39;91.39;102397.09;5056239;28;20044;-67
2021/10/14 08:33:18;;;;;;;20.77;10.02;;;;;;;13.57;90.40;102397.69;5056211;28;20480;-65
2021/10/14 08:35:44;;;;;;;19.40;9.55;;;;;;;13.73;89.42;102389.06;5056356;28;20376;-68
2021/10/14 08:38:11;;;;;;;21.10;9.88;;;;;;;13.90;89.16;102392.41;5056597;28;20090;-68
2021/10/14 08:40:38;;;;;;;24.58;9.80;;;;;;;14.03;88.11;102397.03;5056059;28;20154;-68
2021/10/14 08:43:06;;;;;;;17.63;10.20;;;;;;;14.27;87.99;102396.09;5055612;28;20435;-69
2021/10/14 08:45:35;;;;;;;18.80;9.75;;;;;;;13.98;88.69;102392.34;5054646;28;20485;-68
2021/10/14 08:48:05;;;;;;;22.20;9.77;;;;;;;13.98;89.11;102400.97;5056456;28;20104;-67
2021/10/14 08:50:33;;;;;;;14.52;8.88;;;;;;;13.80;89.17;102395.19;5055848;28;20501;-68
2021/10/14 08:52:58;;;;;;;22.15;9.85;;;;;;;13.87;89.00;102390.94;5056295;28;20091;-67
2021/10/14 08:55:23;;;;;;;19.02;9.55;;;;;;;14.08;88.83;102392.16;5055701;28;20021;-67
2021/10/14 08:57:49;;;;;;;14.25;8.95;;;;;;;14.25;87.56;102388.47;5055873;28;20031;-68
2021/10/14 09:00:14;;;;;;;18.35;9.15;;;;;;;14.35;88.37;102383.84;5054511;28;20027;-68
2021/10/14 09:02:41;;;;;;;16.23;8.65;;;;;;;14.32;87.80;102383.38;5054922;28;20041;-67
2021/10/14 09:05:13;;;;;;;16.40;9.13;;;;;;;15.70;82.49;102378.72;5054396;28;20488;-67
2021/10/14 09:07:39;;;;;;;18.30;8.55;;;;;;;15.22;83.65;102391.31;5053986;28;20056;-68
2021/10/14 09:10:13;;;;;;;16.40;8.77;;;;;;;17.58;76.85;102394.00;5054655;28;20451;-68
2021/10/14 09:12:43;;;;;;;12.38;7.03;;;;;;;23.99;53.11;102383.84;5055644;28;20028;-68
2021/10/14 09:15:11;;;;;;;10.57;6.30;;;;;;;25.54;47.79;102381.28;5054245;28;20023;-68
2021/10/14 09:17:37;;;;;;;12.90;6.13;;;;;;;25.69;47.29;102374.53;5055609;28;20025;-68
2021/10/14 09:20:37;;;;;;;12.50;6.00;;;;;;;25.41;47.45;102371.09;5054008;28;20365;-70
2021/10/14 09:23:21;;;;;;;9.38;5.60;;;;;;;27.80;41.85;102370.19;5053937;28;20056;-67
2021/10/14 09:25:49;;;;;;;14.57;6.38;;;;;;;27.19;42.85;102373.50;5055523;28;20035;-67
2021/10/14 09:28:20;;;;;;;8.77;5.20;;;;;;;27.74;42.15;102374.69;5055153;28;20425;-68
2021/10/14 09:30:47;;;;;;;;;;;;;;;26.80;43.54;102375.69;5055437;28;20025;-68
2021/10/14 09:33:44;;;;;;;12.38;5.60;;;;;;;25.14;47.66;102377.13;5053754;28;19916;-68
2021/10/14 09:39:31;;;;;;;7.97;4.70;;;;;;;27.05;42.16;102370.50;5055265;28;20387;-67
2021/10/14 09:41:58;;;;;;;11.30;4.88;;;;;;;21.52;57.24;102363.56;5055026;28;20334;-73
2021/10/14 09:44:25;;;;;;;9.38;5.13;;;;;;;20.23;61.92;102363.34;5055837;28;20028;-70
2021/10/14 09:46:55;;;;;;;9.63;5.13;;;;;;;18.49;66.82;102367.50;5053967;28;20107;-67
2021/10/14 09:49:31;;;;;;;10.25;5.63;;;;;;;17.09;70.85;102357.53;5055069;28;20103;-71
2021/10/14 09:52:00;;;;;;;11.52;5.60;;;;;;;16.78;73.52;102368.41;5054282;28;20055;-67
2021/10/14 09:54:27;;;;;;;8.60;3.17;;;;;;;16.39;72.68;102364.41;5054648;28;20020;-69
2021/10/14 09:56:53;;;;;;;6.53;2.85;;;;;;;18.94;62.70;102369.53;5054475;28;20070;-67
2021/10/14 09:59:18;;;;;;;8.27;2.50;;;;;;;18.46;65.30;102364.47;5054898;28;20104;-67
2021/10/14 10:01:44;;;;;;;4.82;2.22;;;;;;;22.76;52.46;102362.94;5054504;28;20104;-66
2021/10/14 10:04:09;;;;;;;4.25;2.03;;;;;;;25.94;44.28;102348.31;5053489;28;20021;-69
2021/10/14 10:06:36;;;;;;;3.42;2.03;;;;;;;24.25;46.42;102359.44;5054486;28;20021;-69
2021/10/14 10:09:14;;;;;;;5.47;1.90;;;;;;;20.42;53.92;102355.53;5054466;28;20082;-67
2021/10/14 10:11:45;;;;;;;4.07;2.05;;;;;;;19.70;57.47;102345.28;5054725;28;20555;-67
2021/10/14 10:14:11;;;;;;;6.17;2.10;;;;;;;21.60;52.23;102360.63;5053811;28;20520;-66
2021/10/14 10:16:37;;;;;;;5.47;2.25;;;;;;;18.10;62.92;102349.94;5054202;28;20025;-68
2021/10/14 10:19:06;;;;;;;10.38;2.20;;;;;;;18.37;63.74;102345.53;5052201;28;20415;-68
2021/10/14 10:21:31;;;;;;;7.68;2.33;;;;;;;18.74;60.81;102347.78;5052899;28;20024;-67
2021/10/14 10:24:07;;;;;;;6.20;2.10;;;;;;;19.86;58.51;102345.84;5052804;28;20047;-67
2021/10/14 10:26:32;;;;;;;7.35;2.10;;;;;;;19.90;57.50;102342.56;5053424;28;20040;-67
2021/10/14 10:28:58;;;;;;;5.00;2.00;;;;;;;19.82;59.75;102343.63;5054189;28;20033;-67
2021/10/14 10:31:24;;;;;;;4.10;1.90;;;;;;;20.03;56.83;102339.88;5053854;28;20032;-69
2021/10/14 10:33:54;;;;;;;14.95;2.42;;;;;;;19.66;58.11;102336.25;5053891;28;20357;-67
2021/10/14 10:36:45;;;;;;;8.13;2.30;;;;;;;20.03;57.52;102336.44;5053754;28;20032;-68
2021/10/14 10:39:49;;;;;;;4.28;2.40;;;;;;;20.04;60.59;102336.22;5053019;28;20071;-68
2021/10/14 10:42:29;;;;;;;5.38;1.83;;;;;;;20.36;56.40;102338.81;5053805;28;20072;-67
2021/10/14 10:45:25;;;;;;;4.65;1.90;;;;;;;20.57;55.86;102329.81;5053718;28;20036;-69
2021/10/14 10:51:28;;;;;;;4.30;1.85;;;;;;;19.29;57.91;102324.69;5053900;28;20044;-72
2021/10/14 10:53:53;;;;;;;6.43;1.92;;;;;;;19.23;58.71;102325.53;5052554;28;20021;-67
2021/10/14 10:56:30;;;;;;;3.10;1.70;;;;;;;18.97;59.06;102316.72;5053565;28;20454;-68
2021/10/14 10:58:56;;;;;;;4.45;1.77;;;;;;;18.98;59.86;102320.94;5054183;28;20033;-67
2021/10/14 11:01:22;;;;;;;7.50;2.10;;;;;;;19.11;59.24;102327.97;5053456;28;20021;-67
2021/10/14 11:03:53;;;;;;;5.75;1.95;;;;;;;19.30;59.39;102313.97;5053386;28;20028;-67
2021/10/14 11:06:19;;;;;;;5.40;1.80;;;;;;;18.80;60.54;102329.44;5052252;28;20496;-67
2021/10/14 11:08:44;;;;;;;4.30;1.83;;;;;;;17.98;63.31;102318.34;5052096;28;20032;-68
2021/10/14 11:11:12;;;;;;;5.93;2.00;;;;;;;17.74;62.70;102321.47;5053308;28;20029;-67
2021/10/14 11:13:43;;;;;;;4.93;2.00;;;;;;;17.52;63.89;102326.00;5053285;28;20025;-67
2021/10/14 11:16:13;;;;;;;3.92;1.90;;;;;;;16.84;64.77;102318.03;5053393;28;20028;-68
2021/10/14 11:18:42;;;;;;;4.97;1.90;;;;;;;16.70;65.85;102309.28;5051993;28;20024;-68
2021/10/14 11:21:10;;;;;;;3.70;1.70;;;;;;;16.79;65.48;102309.97;5053312;28;20044;-68
2021/10/14 11:23:42;;;;;;;4.95;2.08;;;;;;;16.98;65.73;102311.91;5053397;28;20021;-68